Time;durP1;ratioP1;P1;durP2;ratioP2;P2;SDS_P1;SDS_P2;PMS_P1;PMS_P2;Temp;Humidity;BMP_temperature;BMP_pressure;BME280_temperature;BME280_humidity;BME280_pressure;Samples;Min_cycle;Max_cycle;Signal;HPM_P1;HPM_P2
2023/05/29 00:00:18;;;;;;;5.90;2.30;;;;;;;;;;5015818;28;20049;-64
2023/05/29 00:02:50;;;;;;;4.43;1.77;;;;;;;;;;5009050;28;20058;-63
2023/05/29 00:05:21;;;;;;;6.10;1.73;;;;;;;;;;4963007;28;20164;-63
2023/05/29 00:07:52;;;;;;;6.70;2.22;;;;;;;;;;4980824;28;20050;-63
2023/05/29 00:10:24;;;;;;;6.32;1.73;;;;;;;;;;4964698;28;20054;-63
2023/05/29 00:13:14;;;;;;;4.10;1.52;;;;;;;;;;5013114;28;20061;-63
2023/05/29 00:15:45;;;;;;;4.47;1.38;;;;;;;;;;4996606;28;20053;-63
2023/05/29 00:18:16;;;;;;;6.78;1.80;;;;;;;;;;5012981;28;20050;-63
2023/05/29 00:20:47;;;;;;;6.05;1.67;;;;;;;;;;5013011;28;20046;-63
2023/05/29 00:23:20;;;;;;;5.20;1.63;;;;;;;;;;5013093;28;20058;-64
2023/05/29 00:25:52;;;;;;;3.22;1.45;;;;;;;;;;4996414;28;20057;-63
2023/05/29 00:28:43;;;;;;;3.15;1.27;;;;;;;;;;5012866;28;20061;-63
2023/05/29 00:31:15;;;;;;;4.72;1.95;;;;;;;;;;4961244;28;20062;-63
2023/05/29 00:33:46;;;;;;;4.95;1.70;;;;;;;;;;4976696;28;20046;-63
2023/05/29 00:36:17;;;;;;;6.85;2.85;;;;;;;;;;4975827;28;20050;-64
2023/05/29 00:38:48;;;;;;;4.47;1.98;;;;;;;;;;4966797;28;20046;-64
2023/05/29 00:41:20;;;;;;;3.97;1.67;;;;;;;;;;4983944;28;20049;-64
2023/05/29 00:44:10;;;;;;;3.55;1.88;;;;;;;;;;4983222;28;20074;-64
2023/05/29 00:46:41;;;;;;;3.63;1.52;;;;;;;;;;4933094;29;20047;-63
2023/05/29 00:49:12;;;;;;;3.42;1.50;;;;;;;;;;4943190;28;20120;-63
2023/05/29 00:51:43;;;;;;;6.88;1.35;;;;;;;;;;4853235;29;20053;-63
2023/05/29 00:54:21;;;;;;;4.28;1.73;;;;;;;;;;4867329;29;20050;-64
2023/05/29 00:56:51;;;;;;;3.63;1.45;;;;;;;;;;4867875;29;20049;-64
2023/05/29 00:59:23;;;;;;;4.45;1.73;;;;;;;;;;4854454;29;20503;-64
2023/05/29 01:01:54;;;;;;;3.97;1.70;;;;;;;;;;4851343;29;20057;-63
2023/05/29 01:04:27;;;;;;;7.25;1.50;;;;;;;;;;4822174;29;20085;-64
2023/05/29 01:06:57;;;;;;;3.30;1.98;;;;;;;;;;4866297;29;20057;-64
2023/05/29 01:09:29;;;;;;;2.65;1.45;;;;;;;;;;4853956;29;20065;-63
2023/05/29 01:12:20;;;;;;;4.55;1.45;;;;;;;;;;4769607;29;20058;-63
2023/05/29 01:15:04;;;;;;;2.25;1.10;;;;;;;;;;4785984;29;20067;-63
2023/05/29 01:17:56;;;;;;;4.43;1.98;;;;;;;;;;4820587;29;20074;-63
2023/05/29 01:20:58;;;;;;;4.03;1.02;;;;;;;;;;4822011;29;20184;-64
2023/05/29 01:23:50;;;;;;;2.67;1.00;;;;;;;;;;4882197;29;20068;-64
2023/05/29 01:26:42;;;;;;;3.47;1.40;;;;;;;;;;4935719;29;20066;-64
2023/05/29 01:29:17;;;;;;;4.32;1.33;;;;;;;;;;4955787;28;20054;-63
2023/05/29 01:31:48;;;;;;;5.03;1.40;;;;;;;;;;4938851;29;20068;-63
2023/05/29 01:34:19;;;;;;;2.60;1.20;;;;;;;;;;4933354;29;20062;-63
2023/05/29 01:36:50;;;;;;;3.63;1.20;;;;;;;;;;4917919;29;20051;-63
2023/05/29 01:39:21;;;;;;;3.50;1.17;;;;;;;;;;4914044;29;20059;-64
2023/05/29 01:41:54;;;;;;;2.85;1.33;;;;;;;;;;4895382;29;20493;-63
2023/05/29 01:44:38;;;;;;;5.72;1.73;;;;;;;;;;4839615;29;20054;-64
2023/05/29 01:47:09;;;;;;;2.22;1.10;;;;;;;;;;4821579;29;20066;-63
2023/05/29 01:49:40;;;;;;;3.05;1.45;;;;;;;;;;4815506;29;20134;-64
2023/05/29 01:52:11;;;;;;;4.70;1.27;;;;;;;;;;4839836;29;20081;-63
2023/05/29 01:54:41;;;;;;;3.47;1.48;;;;;;;;;;4844728;29;20050;-64
2023/05/29 01:57:13;;;;;;;3.90;1.60;;;;;;;;;;4857780;29;20060;-64
2023/05/29 02:00:08;;;;;;;3.17;1.20;;;;;;;;;;4790299;29;20203;-64
2023/05/29 02:02:42;;;;;;;6.43;1.48;;;;;;;;;;4788453;29;20047;-64
2023/05/29 02:05:12;;;;;;;6.65;1.52;;;;;;;;;;4803031;29;20613;-64
2023/05/29 02:07:42;;;;;;;3.80;1.20;;;;;;;;;;4803142;29;20508;-63
2023/05/29 02:10:13;;;;;;;3.92;1.33;;;;;;;;;;4802886;29;20067;-63
2023/05/29 02:12:45;;;;;;;2.78;1.20;;;;;;;;;;4817973;29;20061;-64
2023/05/29 02:15:15;;;;;;;6.05;1.10;;;;;;;;;;4787860;29;20055;-64
2023/05/29 02:17:46;;;;;;;4.78;1.20;;;;;;;;;;4820773;29;20054;-63
2023/05/29 02:20:17;;;;;;;5.43;1.38;;;;;;;;;;4835599;29;20062;-63
2023/05/29 02:22:48;;;;;;;2.70;1.20;;;;;;;;;;4844046;29;20579;-64
2023/05/29 02:25:18;;;;;;;3.35;1.38;;;;;;;;;;4839681;29;20053;-63
2023/05/29 02:27:48;;;;;;;4.88;1.50;;;;;;;;;;4894488;29;20087;-63
2023/05/29 02:30:18;;;;;;;3.58;1.23;;;;;;;;;;4894466;29;20070;-64
2023/05/29 02:32:48;;;;;;;3.47;1.38;;;;;;;;;;4881981;29;20057;-64
2023/05/29 02:35:22;;;;;;;5.65;1.90;;;;;;;;;;4843814;29;20069;-65
2023/05/29 02:37:53;;;;;;;2.92;1.30;;;;;;;;;;4922663;29;20058;-63
2023/05/29 02:40:24;;;;;;;2.85;1.40;;;;;;;;;;4951209;29;20051;-63
2023/05/29 02:42:54;;;;;;;4.40;1.60;;;;;;;;;;4919723;29;20409;-63
2023/05/29 02:45:24;;;;;;;4.40;1.10;;;;;;;;;;4935534;29;20071;-64
2023/05/29 02:47:56;;;;;;;3.53;0.95;;;;;;;;;;4951540;29;20059;-64
2023/05/29 02:50:28;;;;;;;2.33;1.10;;;;;;;;;;4951177;29;20059;-64
2023/05/29 02:52:58;;;;;;;2.60;0.98;;;;;;;;;;4915974;29;20073;-63
2023/05/29 02:55:28;;;;;;;3.83;1.30;;;;;;;;;;4922176;29;20056;-63
2023/05/29 02:58:01;;;;;;;4.20;1.00;;;;;;;;;;4912829;29;20048;-64
2023/05/29 03:00:31;;;;;;;2.53;0.82;;;;;;;;;;4893810;29;20122;-63
2023/05/29 03:03:01;;;;;;;6.70;1.20;;;;;;;;;;4925585;29;20060;-63
2023/05/29 03:05:45;;;;;;;4.45;1.02;;;;;;;;;;4952397;28;20051;-63
2023/05/29 03:08:15;;;;;;;2.60;0.93;;;;;;;;;;4954246;28;20558;-64
2023/05/29 03:10:47;;;;;;;3.03;1.00;;;;;;;;;;4970028;28;20087;-64
2023/05/29 03:13:18;;;;;;;3.72;1.30;;;;;;;;;;4931686;29;20519;-64
2023/05/29 03:15:56;;;;;;;2.47;1.05;;;;;;;;;;4931563;29;20052;-64
2023/05/29 03:18:27;;;;;;;3.90;1.05;;;;;;;;;;4918946;29;20052;-64
2023/05/29 03:20:58;;;;;;;6.22;1.10;;;;;;;;;;4931285;29;20058;-64
2023/05/29 03:23:48;;;;;;;3.20;1.00;;;;;;;;;;4950709;28;20047;-64
2023/05/29 03:26:21;;;;;;;3.88;1.23;;;;;;;;;;4912347;29;20426;-64
2023/05/29 03:28:54;;;;;;;2.65;1.02;;;;;;;;;;4893162;29;20059;-64
2023/05/29 03:31:24;;;;;;;3.78;1.00;;;;;;;;;;4856054;29;20053;-64
2023/05/29 03:34:14;;;;;;;4.18;1.45;;;;;;;;;;4871952;29;20081;-64
2023/05/29 03:36:53;;;;;;;4.88;1.10;;;;;;;;;;4884177;29;20510;-64
2023/05/29 03:39:25;;;;;;;4.50;1.27;;;;;;;;;;4892723;29;20425;-63
2023/05/29 03:41:55;;;;;;;8.23;1.20;;;;;;;;;;4893217;29;20055;-63
2023/05/29 03:44:28;;;;;;;1.75;0.82;;;;;;;;;;4893214;29;20086;-64
2023/05/29 03:46:59;;;;;;;5.75;1.00;;;;;;;;;;4874745;29;20064;-64
2023/05/29 03:49:34;;;;;;;3.10;0.93;;;;;;;;;;4838861;29;20106;-63
2023/05/29 03:52:05;;;;;;;2.15;0.82;;;;;;;;;;4821172;29;20054;-64
2023/05/29 03:54:36;;;;;;;3.55;1.13;;;;;;;;;;4819742;29;20460;-64
2023/05/29 03:57:06;;;;;;;1.67;0.90;;;;;;;;;;4819416;29;20065;-64
2023/05/29 03:59:37;;;;;;;2.38;1.25;;;;;;;;;;4855551;29;20853;-63
2023/05/29 04:02:08;;;;;;;2.25;1.13;;;;;;;;;;4789215;29;20109;-64
2023/05/29 04:04:42;;;;;;;4.03;1.13;;;;;;;;;;4837211;29;20399;-64
2023/05/29 04:07:12;;;;;;;4.18;1.15;;;;;;;;;;4807862;29;20057;-63
2023/05/29 04:09:43;;;;;;;2.70;0.80;;;;;;;;;;4820107;29;20183;-63
2023/05/29 04:12:15;;;;;;;1.83;0.73;;;;;;;;;;4837234;29;20061;-63
2023/05/29 04:14:45;;;;;;;;;;;;;;;;;;4834048;29;20063;-63
2023/05/29 04:17:16;;;;;;;3.00;0.80;;;;;;;;;;4835324;29;20449;-63
2023/05/29 04:19:46;;;;;;;2.10;1.10;;;;;;;;;;4814281;29;20538;-63
2023/05/29 04:22:17;;;;;;;1.92;1.00;;;;;;;;;;4874215;29;20413;-64
2023/05/29 04:24:48;;;;;;;4.88;1.20;;;;;;;;;;4863932;29;20053;-63
2023/05/29 04:27:18;;;;;;;4.45;1.00;;;;;;;;;;4865384;29;20072;-64
2023/05/29 04:29:49;;;;;;;2.20;1.10;;;;;;;;;;4868006;29;20057;-64
2023/05/29 04:32:19;;;;;;;2.45;1.00;;;;;;;;;;4867367;29;20054;-64
2023/05/29 04:35:03;;;;;;;3.83;1.30;;;;;;;;;;4876147;29;20057;-64
2023/05/29 04:38:04;;;;;;;2.78;1.05;;;;;;;;;;4812450;29;20415;-64
2023/05/29 04:40:36;;;;;;;4.05;1.20;;;;;;;;;;4837282;29;20057;-64
2023/05/29 04:43:06;;;;;;;4.57;1.02;;;;;;;;;;4825506;29;20064;-63
2023/05/29 04:45:58;;;;;;;4.25;1.08;;;;;;;;;;4791734;29;20059;-64
2023/05/29 04:48:29;;;;;;;2.58;0.90;;;;;;;;;;4829808;29;20059;-65
2023/05/29 04:50:59;;;;;;;3.22;1.30;;;;;;;;;;4856092;29;20068;-64
2023/05/29 04:53:31;;;;;;;1.90;1.20;;;;;;;;;;4840553;29;20096;-64
2023/05/29 04:56:21;;;;;;;2.80;1.38;;;;;;;;;;4842256;29;20057;-64
2023/05/29 04:58:52;;;;;;;2.22;1.13;;;;;;;;;;4823695;29;20054;-64
2023/05/29 05:01:23;;;;;;;3.25;1.10;;;;;;;;;;4838747;29;20058;-64
2023/05/29 05:03:55;;;;;;;3.10;0.98;;;;;;;;;;4803975;29;20054;-64
2023/05/29 05:06:26;;;;;;;3.30;1.00;;;;;;;;;;4840469;29;20057;-64
2023/05/29 05:08:57;;;;;;;7.57;1.00;;;;;;;;;;4855407;29;20057;-64
2023/05/29 05:11:28;;;;;;;2.30;0.95;;;;;;;;;;4877163;29;20061;-63
2023/05/29 05:13:58;;;;;;;3.33;1.23;;;;;;;;;;4858619;29;20049;-64
2023/05/29 05:16:28;;;;;;;1.60;0.90;;;;;;;;;;4809634;29;20172;-64
2023/05/29 05:18:59;;;;;;;6.45;1.27;;;;;;;;;;4824886;29;20712;-63
2023/05/29 05:21:33;;;;;;;3.72;1.13;;;;;;;;;;4858415;29;20053;-64
2023/05/29 05:24:04;;;;;;;2.85;0.98;;;;;;;;;;4858180;29;20053;-64
2023/05/29 05:26:34;;;;;;;2.75;1.40;;;;;;;;;;4846269;29;20058;-64
2023/05/29 05:29:18;;;;;;;3.30;1.20;;;;;;;;;;4814471;29;20776;-64
2023/05/29 05:31:48;;;;;;;2.78;1.00;;;;;;;;;;4775439;29;20074;-64
2023/05/29 05:34:18;;;;;;;3.40;0.93;;;;;;;;;;4754376;30;20068;-64
2023/05/29 05:36:49;;;;;;;2.75;1.00;;;;;;;;;;4759557;30;20056;-64
2023/05/29 05:39:19;;;;;;;2.88;1.00;;;;;;;;;;4778045;30;20074;-63
2023/05/29 05:41:49;;;;;;;3.20;0.90;;;;;;;;;;4785480;30;20051;-64
2023/05/29 05:44:39;;;;;;;2.15;0.90;;;;;;;;;;4786683;29;20066;-64
2023/05/29 05:47:13;;;;;;;3.70;1.20;;;;;;;;;;4821323;29;20423;-64
2023/05/29 05:49:48;;;;;;;3.50;1.48;;;;;;;;;;4818700;29;20478;-64
2023/05/29 05:52:19;;;;;;;3.08;0.90;;;;;;;;;;4807436;29;20054;-64
2023/05/29 05:54:49;;;;;;;3.47;1.10;;;;;;;;;;4839171;29;20049;-64
2023/05/29 05:57:20;;;;;;;2.83;0.90;;;;;;;;;;4857707;29;20058;-64
2023/05/29 05:59:50;;;;;;;3.08;1.45;;;;;;;;;;4825440;29;20054;-65
2023/05/29 06:02:24;;;;;;;2.33;0.95;;;;;;;;;;4857301;29;20054;-64
2023/05/29 06:04:54;;;;;;;3.50;1.10;;;;;;;;;;4857459;29;20057;-64
2023/05/29 06:07:25;;;;;;;4.15;1.38;;;;;;;;;;4857621;29;20414;-63
2023/05/29 06:09:55;;;;;;;5.63;1.50;;;;;;;;;;4827288;29;20058;-65
2023/05/29 06:12:25;;;;;;;2.75;1.23;;;;;;;;;;4868722;29;20522;-64
2023/05/29 06:15:04;;;;;;;4.63;1.55;;;;;;;;;;4844031;29;20053;-64
2023/05/29 06:17:35;;;;;;;3.05;1.10;;;;;;;;;;4852462;29;20061;-65
2023/05/29 06:20:10;;;;;;;2.50;1.20;;;;;;;;;;4830399;29;20050;-64
2023/05/29 06:22:41;;;;;;;4.03;1.27;;;;;;;;;;4820703;29;20100;-64
2023/05/29 06:25:11;;;;;;;4.97;1.20;;;;;;;;;;4812781;29;20066;-64
2023/05/29 06:27:43;;;;;;;3.15;1.45;;;;;;;;;;4823784;29;20107;-65
2023/05/29 06:30:15;;;;;;;3.08;1.42;;;;;;;;;;4827705;29;20073;-64
2023/05/29 06:32:47;;;;;;;2.67;1.17;;;;;;;;;;4816434;29;20063;-64
2023/05/29 06:35:17;;;;;;;2.58;1.27;;;;;;;;;;4822981;29;20062;-64
2023/05/29 06:38:07;;;;;;;3.38;1.20;;;;;;;;;;4845825;29;20053;-64
2023/05/29 06:40:38;;;;;;;5.25;1.35;;;;;;;;;;4830726;29;20050;-63
2023/05/29 06:43:11;;;;;;;2.97;1.10;;;;;;;;;;4795227;29;20074;-64
2023/05/29 06:45:47;;;;;;;2.83;1.20;;;;;;;;;;4820480;29;20062;-63
2023/05/29 06:48:18;;;;;;;3.10;1.30;;;;;;;;;;4820509;29;20069;-64
2023/05/29 06:50:50;;;;;;;2.97;1.00;;;;;;;;;;4805840;29;20062;-63
2023/05/29 06:53:49;;;;;;;4.38;1.60;;;;;;;;;;4836590;29;20058;-63
2023/05/29 06:56:20;;;;;;;2.22;0.90;;;;;;;;;;4827728;29;20107;-64
2023/05/29 06:58:50;;;;;;;4.32;1.23;;;;;;;;;;4816890;29;20050;-65
2023/05/29 07:01:22;;;;;;;6.30;1.40;;;;;;;;;;4856380;29;20415;-64
2023/05/29 07:04:03;;;;;;;4.10;1.10;;;;;;;;;;4879544;29;20525;-64
2023/05/29 07:06:33;;;;;;;5.10;1.33;;;;;;;;;;4871826;29;20054;-64
2023/05/29 07:09:07;;;;;;;2.22;1.08;;;;;;;;;;4912536;29;20051;-64
2023/05/29 07:11:38;;;;;;;4.05;1.15;;;;;;;;;;4866226;29;20052;-64
2023/05/29 07:14:09;;;;;;;3.65;1.13;;;;;;;;;;4856944;29;20062;-63
2023/05/29 07:16:39;;;;;;;4.03;1.50;;;;;;;;;;4872661;29;20053;-65
2023/05/29 07:19:11;;;;;;;3.30;1.50;;;;;;;;;;4875174;29;20386;-64
2023/05/29 07:21:51;;;;;;;4.72;1.27;;;;;;;;;;4875153;29;20041;-63
2023/05/29 07:24:23;;;;;;;3.28;1.40;;;;;;;;;;4854887;29;20628;-64
2023/05/29 07:26:55;;;;;;;2.97;1.25;;;;;;;;;;4871320;29;20206;-63
2023/05/29 07:29:25;;;;;;;5.55;1.25;;;;;;;;;;4860032;29;20628;-63
2023/05/29 07:31:57;;;;;;;3.03;0.93;;;;;;;;;;4842231;29;20056;-63
2023/05/29 07:34:27;;;;;;;2.95;1.80;;;;;;;;;;4831401;29;20051;-63
2023/05/29 07:37:02;;;;;;;2.88;1.20;;;;;;;;;;4843488;29;20074;-63
2023/05/29 07:39:35;;;;;;;2.80;1.45;;;;;;;;;;4861299;29;20057;-63
2023/05/29 07:42:25;;;;;;;5.88;1.35;;;;;;;;;;4837793;29;20050;-64
2023/05/29 07:44:56;;;;;;;7.57;1.67;;;;;;;;;;4856126;29;21173;-64
2023/05/29 07:47:26;;;;;;;4.32;1.20;;;;;;;;;;4791645;29;20047;-63
2023/05/29 07:49:57;;;;;;;2.92;1.50;;;;;;;;;;4789165;29;20062;-63
2023/05/29 07:52:29;;;;;;;5.57;1.23;;;;;;;;;;4801281;29;20055;-65
2023/05/29 07:55:01;;;;;;;2.45;1.30;;;;;;;;;;4833892;29;20404;-63
2023/05/29 07:57:31;;;;;;;2.33;1.50;;;;;;;;;;4819545;29;20527;-63
2023/05/29 08:00:08;;;;;;;2.60;1.10;;;;;;;;;;4850039;29;20057;-64
2023/05/29 08:02:46;;;;;;;2.45;1.48;;;;;;;;;;4799358;29;20062;-63
2023/05/29 08:05:43;;;;;;;9.23;1.33;;;;;;;;;;4838822;29;20054;-65
2023/05/29 08:08:15;;;;;;;4.43;1.40;;;;;;;;;;4838262;29;20058;-63
2023/05/29 08:10:46;;;;;;;5.05;1.70;;;;;;;;;;4846797;29;20054;-63
2023/05/29 08:13:16;;;;;;;9.35;1.70;;;;;;;;;;4840407;29;20049;-63
2023/05/29 08:15:47;;;;;;;4.30;1.40;;;;;;;;;;4838651;29;20062;-64
2023/05/29 08:18:17;;;;;;;1.98;0.98;;;;;;;;;;4848164;29;20046;-63
2023/05/29 08:20:48;;;;;;;9.77;1.60;;;;;;;;;;4865544;29;20514;-63
2023/05/29 08:23:18;;;;;;;12.07;1.77;;;;;;;;;;4825964;29;20207;-64
2023/05/29 08:25:49;;;;;;;4.45;1.20;;;;;;;;;;4804074;29;20072;-63
2023/05/29 08:28:19;;;;;;;3.67;1.35;;;;;;;;;;4801872;29;20524;-63
2023/05/29 08:30:49;;;;;;;2.83;1.10;;;;;;;;;;4822437;29;20554;-63
2023/05/29 08:33:19;;;;;;;4.03;1.38;;;;;;;;;;4822799;29;20058;-63
2023/05/29 08:35:50;;;;;;;3.63;1.20;;;;;;;;;;4809008;29;20074;-63
2023/05/29 08:38:21;;;;;;;2.92;1.60;;;;;;;;;;4815028;29;20063;-64
2023/05/29 08:40:51;;;;;;;4.22;1.33;;;;;;;;;;4804523;29;20055;-63
2023/05/29 08:43:23;;;;;;;4.72;1.40;;;;;;;;;;4849594;29;20062;-63
2023/05/29 08:45:55;;;;;;;2.92;1.27;;;;;;;;;;4821777;29;20542;-63
2023/05/29 08:48:28;;;;;;;3.67;1.50;;;;;;;;;;4828365;29;20069;-63
2023/05/29 08:51:02;;;;;;;4.72;1.80;;;;;;;;;;4883554;29;20655;-64
2023/05/29 08:53:32;;;;;;;4.50;1.52;;;;;;;;;;4907993;29;20067;-63
2023/05/29 08:56:03;;;;;;;3.53;1.45;;;;;;;;;;4939495;28;20072;-63
2023/05/29 08:58:34;;;;;;;2.63;1.40;;;;;;;;;;4973039;28;20055;-64
2023/05/29 09:01:05;;;;;;;2.13;1.20;;;;;;;;;;4972748;28;20058;-63
2023/05/29 09:03:37;;;;;;;4.15;1.45;;;;;;;;;;4994347;28;20069;-63
2023/05/29 09:06:08;;;;;;;4.15;1.98;;;;;;;;;;4979333;28;20061;-64
2023/05/29 09:08:38;;;;;;;3.95;1.60;;;;;;;;;;5009811;28;20504;-63
2023/05/29 09:11:08;;;;;;;6.20;1.70;;;;;;;;;;5053865;28;20504;-63
2023/05/29 09:13:40;;;;;;;4.22;1.88;;;;;;;;;;5053983;28;20408;-63
2023/05/29 09:16:10;;;;;;;3.05;1.63;;;;;;;;;;5053674;28;20037;-63
2023/05/29 09:18:45;;;;;;;2.80;1.20;;;;;;;;;;5019462;28;20068;-63
2023/05/29 09:21:33;;;;;;;5.60;1.60;;;;;;;;;;5034987;28;20053;-63
2023/05/29 09:24:06;;;;;;;5.75;1.70;;;;;;;;;;5018620;28;20056;-64
2023/05/29 09:26:36;;;;;;;3.35;1.40;;;;;;;;;;5053756;28;20049;-63
2023/05/29 09:29:08;;;;;;;3.28;1.60;;;;;;;;;;5053498;28;20056;-64
2023/05/29 09:31:58;;;;;;;4.55;1.50;;;;;;;;;;5031167;28;20060;-63
2023/05/29 09:34:33;;;;;;;5.28;1.50;;;;;;;;;;5030997;28;20057;-63
2023/05/29 09:37:08;;;;;;;4.13;1.70;;;;;;;;;;5029995;28;20058;-63
2023/05/29 09:39:51;;;;;;;3.75;1.65;;;;;;;;;;5031140;28;20516;-63
2023/05/29 09:42:21;;;;;;;3.55;1.45;;;;;;;;;;4982803;28;20060;-63
2023/05/29 09:44:55;;;;;;;3.28;1.63;;;;;;;;;;4949555;28;20461;-64
2023/05/29 09:47:25;;;;;;;4.13;1.50;;;;;;;;;;4982039;28;20579;-63
2023/05/29 09:49:55;;;;;;;3.42;1.50;;;;;;;;;;4997828;28;20050;-64
2023/05/29 09:52:26;;;;;;;3.05;1.80;;;;;;;;;;5030707;28;20057;-63
2023/05/29 09:54:57;;;;;;;3.80;1.70;;;;;;;;;;5030737;28;20041;-63
2023/05/29 09:57:28;;;;;;;4.38;1.70;;;;;;;;;;5030636;28;20125;-63
2023/05/29 10:00:00;;;;;;;4.53;1.75;;;;;;;;;;5030604;28;20401;-64
2023/05/29 10:02:40;;;;;;;3.42;1.58;;;;;;;;;;5000292;28;20497;-64
2023/05/29 10:05:12;;;;;;;3.92;1.45;;;;;;;;;;4981205;28;20041;-63
2023/05/29 10:08:03;;;;;;;5.35;1.70;;;;;;;;;;4971302;28;20047;-64
2023/05/29 10:10:35;;;;;;;5.85;1.50;;;;;;;;;;5006548;28;20050;-62
2023/05/29 10:13:09;;;;;;;7.25;1.88;;;;;;;;;;4931426;28;20061;-62
2023/05/29 10:15:45;;;;;;;3.17;1.60;;;;;;;;;;4977960;28;20053;-62
2023/05/29 10:18:26;;;;;;;3.67;1.50;;;;;;;;;;4978297;28;20058;-62
2023/05/29 10:20:58;;;;;;;3.65;1.58;;;;;;;;;;4994114;28;20076;-62
2023/05/29 10:23:29;;;;;;;2.28;1.30;;;;;;;;;;5010119;28;20053;-63
2023/05/29 10:26:18;;;;;;;4.85;1.50;;;;;;;;;;4914770;28;20540;-63
2023/05/29 10:29:11;;;;;;;4.57;1.45;;;;;;;;;;4961786;28;20057;-62
2023/05/29 10:31:49;;;;;;;9.77;2.38;;;;;;;;;;4993698;28;20061;-62
2023/05/29 10:34:35;;;;;;;4.35;1.75;;;;;;;;;;5010093;28;20057;-62
2023/05/29 10:37:22;;;;;;;3.60;1.50;;;;;;;;;;4993736;28;20068;-62
2023/05/29 10:39:52;;;;;;;4.57;1.80;;;;;;;;;;5010005;28;20066;-63
2023/05/29 10:42:49;;;;;;;7.10;1.98;;;;;;;;;;5009712;28;20498;-62
2023/05/29 10:45:31;;;;;;;5.75;2.08;;;;;;;;;;5007258;28;20543;-63
2023/05/29 10:48:10;;;;;;;3.50;1.77;;;;;;;;;;5051645;28;20485;-62
2023/05/29 10:50:43;;;;;;;3.55;1.92;;;;;;;;;;5016322;28;20057;-62
2023/05/29 10:53:22;;;;;;;5.30;1.92;;;;;;;;;;5049347;28;20049;-62
2023/05/29 10:55:53;;;;;;;7.15;2.03;;;;;;;;;;5051714;28;20049;-62
2023/05/29 10:58:25;;;;;;;6.05;2.17;;;;;;;;;;5032516;28;20052;-63
2023/05/29 11:01:09;;;;;;;9.23;2.17;;;;;;;;;;5033492;28;20064;-62
2023/05/29 11:03:40;;;;;;;4.38;1.80;;;;;;;;;;5016484;28;20048;-63
2023/05/29 11:06:25;;;;;;;3.80;1.65;;;;;;;;;;5016330;28;20496;-63
2023/05/29 11:08:58;;;;;;;4.05;1.95;;;;;;;;;;5050898;28;20057;-63
2023/05/29 11:11:40;;;;;;;10.75;2.22;;;;;;;;;;5056328;28;20045;-63
2023/05/29 11:14:10;;;;;;;8.38;2.60;;;;;;;;;;5051450;28;20052;-63
2023/05/29 11:16:42;;;;;;;8.88;3.28;;;;;;;;;;5083731;28;20491;-62
2023/05/29 11:19:16;;;;;;;7.57;3.05;;;;;;;;;;5071150;28;20045;-63
2023/05/29 11:22:11;;;;;;;8.50;3.47;;;;;;;;;;5071148;28;20499;-63
2023/05/29 11:24:46;;;;;;;6.10;2.90;;;;;;;;;;5071430;28;20041;-63
2023/05/29 11:27:16;;;;;;;6.70;2.72;;;;;;;;;;5048330;28;20412;-63
2023/05/29 11:29:53;;;;;;;7.95;2.67;;;;;;;;;;4977094;28;20046;-63
2023/05/29 11:32:27;;;;;;;5.43;2.80;;;;;;;;;;5008881;28;20061;-63
2023/05/29 11:35:05;;;;;;;6.30;2.85;;;;;;;;;;5009062;28;20054;-63
2023/05/29 11:37:38;;;;;;;7.28;4.35;;;;;;;;;;5008611;28;20506;-63
2023/05/29 11:40:09;;;;;;;9.55;3.20;;;;;;;;;;4944678;28;21060;-63
2023/05/29 11:42:48;;;;;;;7.57;3.30;;;;;;;;;;4960111;28;20057;-63
2023/05/29 11:45:21;;;;;;;5.55;2.83;;;;;;;;;;5008989;28;20050;-65
2023/05/29 11:47:56;;;;;;;4.78;2.53;;;;;;;;;;4992555;28;20058;-63
2023/05/29 11:50:29;;;;;;;4.65;2.20;;;;;;;;;;5028348;28;20053;-63
2023/05/29 11:53:00;;;;;;;2.20;1.30;;;;;;;;;;5027707;28;20061;-64
2023/05/29 11:55:30;;;;;;;4.38;1.42;;;;;;;;;;5028608;28;20159;-63
2023/05/29 11:58:03;;;;;;;4.75;1.52;;;;;;;;;;5028751;28;20616;-63
2023/05/29 12:00:37;;;;;;;3.47;1.60;;;;;;;;;;4994783;28;20556;-63
2023/05/29 12:03:08;;;;;;;2.92;1.60;;;;;;;;;;4996263;28;20068;-63
2023/05/29 12:05:52;;;;;;;4.70;1.40;;;;;;;;;;5028497;28;20046;-63
2023/05/29 12:08:24;;;;;;;5.65;1.33;;;;;;;;;;4962120;28;20062;-66
2023/05/29 12:10:54;;;;;;;3.13;1.35;;;;;;;;;;5007937;28;20048;-63
2023/05/29 12:13:24;;;;;;;2.42;1.00;;;;;;;;;;5008710;28;20564;-63
2023/05/29 12:15:58;;;;;;;2.47;0.98;;;;;;;;;;5008439;28;20069;-62
2023/05/29 12:18:29;;;;;;;2.05;1.42;;;;;;;;;;5028032;28;20464;-63
2023/05/29 12:21:07;;;;;;;2.08;1.20;;;;;;;;;;4995347;28;20049;-63
2023/05/29 12:23:38;;;;;;;4.03;0.90;;;;;;;;;;5011663;28;20052;-63
2023/05/29 12:26:09;;;;;;;2.35;1.02;;;;;;;;;;5028234;28;20061;-63
2023/05/29 12:28:46;;;;;;;1.65;0.85;;;;;;;;;;5013585;28;20058;-63
2023/05/29 12:31:29;;;;;;;3.83;1.30;;;;;;;;;;4991936;28;20046;-63
2023/05/29 12:34:12;;;;;;;2.55;0.80;;;;;;;;;;5008687;28;20049;-63
2023/05/29 12:36:45;;;;;;;2.72;1.10;;;;;;;;;;5013685;28;20409;-63
2023/05/29 12:39:15;;;;;;;2.55;1.10;;;;;;;;;;5065665;28;20404;-63
2023/05/29 12:41:46;;;;;;;2.40;1.00;;;;;;;;;;5047757;28;20041;-63
2023/05/29 12:44:19;;;;;;;2.70;1.02;;;;;;;;;;4999817;28;20524;-63
2023/05/29 12:46:49;;;;;;;1.65;0.82;;;;;;;;;;5048076;28;20061;-63
2023/05/29 12:49:20;;;;;;;3.28;1.27;;;;;;;;;;5031332;28;20512;-63
2023/05/29 12:51:52;;;;;;;2.30;1.05;;;;;;;;;;5047949;28;20459;-64
2023/05/29 12:54:23;;;;;;;3.60;1.48;;;;;;;;;;5047967;28;20064;-63
2023/05/29 12:56:53;;;;;;;2.40;1.13;;;;;;;;;;4998489;28;20045;-63
2023/05/29 12:59:23;;;;;;;2.05;0.80;;;;;;;;;;5028108;28;20068;-64
2023/05/29 13:01:53;;;;;;;1.67;1.00;;;;;;;;;;5027786;28;20076;-63
2023/05/29 13:04:23;;;;;;;2.55;1.10;;;;;;;;;;5009532;28;20064;-63
2023/05/29 13:06:54;;;;;;;1.95;1.00;;;;;;;;;;5008576;28;20058;-63
2023/05/29 13:09:24;;;;;;;2.67;1.02;;;;;;;;;;4975075;28;20058;-64
2023/05/29 13:11:54;;;;;;;1.17;0.73;;;;;;;;;;4991579;28;20061;-64
2023/05/29 13:14:24;;;;;;;2.03;0.70;;;;;;;;;;4991578;28;20054;-63
2023/05/29 13:16:54;;;;;;;3.55;1.00;;;;;;;;;;4991919;28;20051;-64
2023/05/29 13:19:25;;;;;;;4.70;0.80;;;;;;;;;;4969552;28;20056;-64
2023/05/29 13:21:56;;;;;;;1.77;0.90;;;;;;;;;;4994889;28;20761;-63
2023/05/29 13:24:26;;;;;;;2.20;1.20;;;;;;;;;;5011713;28;20057;-63
2023/05/29 13:26:56;;;;;;;1.65;0.82;;;;;;;;;;4991356;28;20046;-64
2023/05/29 13:29:27;;;;;;;2.33;1.02;;;;;;;;;;4992217;28;21170;-63
2023/05/29 13:31:57;;;;;;;2.92;1.80;;;;;;;;;;4991764;28;20558;-63
2023/05/29 13:34:28;;;;;;;3.33;1.38;;;;;;;;;;4959393;28;20446;-63
2023/05/29 13:37:02;;;;;;;2.45;1.02;;;;;;;;;;4983781;28;20061;-63
2023/05/29 13:39:33;;;;;;;3.80;1.88;;;;;;;;;;5011209;28;20061;-63
2023/05/29 13:42:06;;;;;;;1.83;0.90;;;;;;;;;;4979341;28;20061;-63
2023/05/29 13:44:38;;;;;;;4.38;1.38;;;;;;;;;;5010791;28;20063;-63
2023/05/29 13:47:08;;;;;;;2.63;0.60;;;;;;;;;;4994616;28;20065;-63
2023/05/29 13:49:38;;;;;;;1.85;0.82;;;;;;;;;;5010455;28;20045;-63
2023/05/29 13:52:10;;;;;;;2.47;0.80;;;;;;;;;;4999864;28;20050;-63
2023/05/29 13:54:41;;;;;;;2.08;0.73;;;;;;;;;;4991433;28;20430;-64
2023/05/29 13:57:12;;;;;;;8.77;2.60;;;;;;;;;;4991134;28;20065;-64
2023/05/29 13:59:43;;;;;;;5.65;1.60;;;;;;;;;;4991383;28;20457;-64
2023/05/29 14:02:13;;;;;;;3.10;0.82;;;;;;;;;;4974720;28;20054;-63
2023/05/29 14:04:43;;;;;;;2.38;0.70;;;;;;;;;;5012563;28;20168;-63
2023/05/29 14:07:14;;;;;;;0.80;0.35;;;;;;;;;;5030426;28;20062;-63
2023/05/29 14:09:44;;;;;;;1.70;0.95;;;;;;;;;;4997634;28;20053;-63
2023/05/29 14:12:14;;;;;;;1.20;0.50;;;;;;;;;;5030033;28;20053;-64
2023/05/29 14:14:45;;;;;;;1.25;0.50;;;;;;;;;;5030299;28;20053;-64
2023/05/29 14:17:15;;;;;;;1.05;0.50;;;;;;;;;;4997719;28;20057;-63
2023/05/29 14:19:47;;;;;;;1.13;0.70;;;;;;;;;;4980844;28;20045;-63
2023/05/29 14:22:18;;;;;;;1.00;0.73;;;;;;;;;;5030073;28;20065;-63
2023/05/29 14:24:49;;;;;;;2.55;0.70;;;;;;;;;;5029245;28;20406;-64
2023/05/29 14:27:19;;;;;;;1.83;0.93;;;;;;;;;;5030008;28;20053;-64
2023/05/29 14:29:51;;;;;;;1.10;0.68;;;;;;;;;;5033241;28;20067;-63
2023/05/29 14:32:22;;;;;;;3.00;0.77;;;;;;;;;;5016140;28;20049;-63
2023/05/29 14:34:52;;;;;;;1.02;0.57;;;;;;;;;;5050047;28;20049;-63
2023/05/29 14:37:23;;;;;;;1.73;0.68;;;;;;;;;;5049337;28;20068;-63
2023/05/29 14:39:53;;;;;;;2.70;0.75;;;;;;;;;;4984148;28;20607;-63
2023/05/29 14:42:23;;;;;;;1.75;0.80;;;;;;;;;;5049511;28;20048;-64
2023/05/29 14:44:54;;;;;;;1.50;1.10;;;;;;;;;;5049873;28;20122;-63
2023/05/29 14:47:25;;;;;;;1.65;0.70;;;;;;;;;;5016129;28;20052;-64
2023/05/29 14:49:55;;;;;;;1.42;0.75;;;;;;;;;;4983786;28;20436;-64
2023/05/29 14:52:26;;;;;;;1.33;0.63;;;;;;;;;;5049379;28;20053;-64
2023/05/29 14:54:57;;;;;;;0.93;0.60;;;;;;;;;;5049818;28;20053;-64
2023/05/29 14:57:27;;;;;;;1.05;0.70;;;;;;;;;;4965559;28;20072;-65
2023/05/29 14:59:57;;;;;;;1.27;0.63;;;;;;;;;;5029316;28;20041;-64
2023/05/29 15:02:27;;;;;;;1.20;0.70;;;;;;;;;;5029587;28;20084;-64
2023/05/29 15:04:58;;;;;;;0.82;0.57;;;;;;;;;;4969972;28;20045;-64
2023/05/29 15:07:30;;;;;;;1.30;0.80;;;;;;;;;;5013166;28;20054;-64
2023/05/29 15:10:00;;;;;;;1.23;0.88;;;;;;;;;;5029080;28;20061;-65
2023/05/29 15:12:32;;;;;;;1.50;0.73;;;;;;;;;;4980346;28;20049;-64
2023/05/29 15:15:04;;;;;;;2.58;0.80;;;;;;;;;;5029201;28;20049;-65
2023/05/29 15:17:36;;;;;;;1.00;0.70;;;;;;;;;;4995887;28;20601;-64
2023/05/29 15:20:06;;;;;;;1.23;0.80;;;;;;;;;;5048684;28;20053;-64